Time;durP1;ratioP1;P1;durP2;ratioP2;P2;SDS_P1;SDS_P2;PMS_P1;PMS_P2;Temp;Humidity;BMP_temperature;BMP_pressure;BME280_temperature;BME280_humidity;BME280_pressure;Samples;Min_cycle;Max_cycle;Signal;HPM_P1;HPM_P2
2023/10/08 00:02:21;;;;;;;4.97;2.25;;;;;17.00;95022.00;;;;7395690;19;20148;-73
2023/10/08 00:04:54;;;;;;;4.25;2.28;;;;;17.00;95033.00;;;;7398150;19;20165;-75
2023/10/08 00:07:44;;;;;;;7.75;2.20;;;;;17.10;95019.00;;;;7395488;19;20514;-73
2023/10/08 00:10:22;;;;;;;4.03;2.33;;;;;17.20;95024.00;;;;7396069;19;20648;-75
2023/10/08 00:12:59;;;;;;;6.65;2.67;;;;;17.10;95018.00;;;;7399117;19;20145;-75
2023/10/08 00:15:36;;;;;;;5.95;2.60;;;;;17.20;95011.00;;;;7396402;19;20132;-74
2023/10/08 00:18:11;;;;;;;4.93;2.75;;;;;17.10;95012.00;;;;7397778;19;20517;-76
2023/10/08 00:20:58;;;;;;;7.43;2.38;;;;;17.20;95013.00;;;;7395586;19;20144;-75
2023/10/08 00:23:35;;;;;;;4.68;2.50;;;;;17.10;95014.00;;;;7398109;19;20136;-74
2023/10/08 00:26:12;;;;;;;6.57;2.50;;;;;17.20;95008.00;;;;7397409;19;20543;-80
2023/10/08 00:28:47;;;;;;;8.73;2.90;;;;;17.10;95007.00;;;;7395893;19;20615;-80
2023/10/08 00:31:18;;;;;;;6.47;2.40;;;;;17.00;95007.00;;;;7397834;19;20160;-78
2023/10/08 00:33:46;;;;;;;7.00;2.60;;;;;17.00;95006.00;;;;7396435;19;20627;-81
2023/10/08 00:36:20;;;;;;;7.28;2.60;;;;;17.00;95004.00;;;;7398338;19;20137;-77
2023/10/08 00:38:53;;;;;;;11.63;2.85;;;;;17.10;95008.00;;;;7397164;19;20168;-80
2023/10/08 00:41:30;;;;;;;6.63;2.13;;;;;17.00;95004.00;;;;7398878;19;20730;-77
2023/10/08 00:44:08;;;;;;;8.10;2.42;;;;;17.10;95000.00;;;;7396287;19;20152;-78
2023/10/08 00:46:49;;;;;;;5.95;2.67;;;;;17.10;94996.00;;;;7397658;19;20156;-79
2023/10/08 00:49:25;;;;;;;14.65;2.58;;;;;17.10;95002.00;;;;7395488;19;20160;-78
2023/10/08 00:54:49;;;;;;;12.15;2.38;;;;;17.20;95001.00;;;;7396235;19;20135;-81
2023/10/08 00:57:30;;;;;;;7.28;2.67;;;;;17.30;95001.00;;;;7398897;19;20137;-81
2023/10/08 00:59:59;;;;;;;10.05;2.45;;;;;17.20;94992.00;;;;7397573;19;20607;-79
2023/10/08 01:02:54;;;;;;;4.63;2.60;;;;;17.20;94994.00;;;;7383600;19;20188;-78
2023/10/08 01:05:46;;;;;;;6.32;3.20;;;;;17.20;94997.00;;;;7391808;19;20479;-77
2023/10/08 01:08:34;;;;;;;5.65;2.65;;;;;17.30;94992.00;;;;7394974;19;20153;-77
2023/10/08 01:11:33;;;;;;;8.18;2.50;;;;;17.30;94994.00;;;;7397431;19;20140;-77
2023/10/08 01:14:02;;;;;;;10.32;2.70;;;;;17.10;94994.00;;;;7396393;19;20714;-78
2023/10/08 01:16:41;;;;;;;7.10;2.75;;;;;17.20;95000.00;;;;7395963;19;20244;-76
2023/10/08 01:19:20;;;;;;;5.95;2.85;;;;;17.10;94991.00;;;;7395565;19;20196;-80
2023/10/08 01:21:58;;;;;;;13.68;3.17;;;;;17.10;94988.00;;;;7397686;19;20125;-77
2023/10/08 01:24:27;;;;;;;11.85;3.08;;;;;17.00;94987.00;;;;7396417;19;20135;-78
2023/10/08 01:27:04;;;;;;;8.70;2.50;;;;;17.10;94989.00;;;;7396797;19;20160;-79
2023/10/08 01:29:32;;;;;;;11.10;2.90;;;;;17.10;94983.00;;;;7394394;19;20145;-77
2023/10/08 01:32:11;;;;;;;5.32;2.78;;;;;17.10;94989.00;;;;7394950;19;20588;-78
2023/10/08 01:34:39;;;;;;;11.52;3.40;;;;;17.20;94997.00;;;;7393432;19;20592;-78
2023/10/08 01:37:12;;;;;;;8.98;3.17;;;;;17.30;94993.00;;;;7396226;19;20623;-80
2023/10/08 01:39:50;;;;;;;6.97;2.65;;;;;17.40;94991.00;;;;7392485;19;20145;-74
2023/10/08 01:42:18;;;;;;;7.45;2.60;;;;;17.20;94988.00;;;;7394874;19;20587;-76
2023/10/08 01:44:54;;;;;;;9.60;2.72;;;;;17.30;94982.00;;;;7395751;19;20175;-77
2023/10/08 01:47:30;;;;;;;10.15;2.30;;;;;17.40;94985.00;;;;7394910;19;20521;-78
2023/10/08 01:50:05;;;;;;;7.35;2.65;;;;;17.30;94985.00;;;;7393478;19;20129;-78
2023/10/08 01:52:46;;;;;;;8.05;2.53;;;;;17.50;94974.00;;;;7394846;19;20502;-79
2023/10/08 01:55:18;;;;;;;10.30;2.80;;;;;17.40;94978.00;;;;7394827;19;20137;-78
2023/10/08 01:57:56;;;;;;;6.65;2.35;;;;;17.40;94970.00;;;;7393985;19;20533;-78
2023/10/08 02:00:26;;;;;;;7.15;2.63;;;;;17.50;94983.00;;;;7392371;19;20156;-78
2023/10/08 02:03:01;;;;;;;11.65;2.45;;;;;17.40;94973.00;;;;7392798;19;20284;-78
2023/10/08 02:05:44;;;;;;;9.27;2.47;;;;;17.20;94976.00;;;;7393502;19;20137;-79
2023/10/08 02:08:14;;;;;;;9.93;2.92;;;;;17.30;94972.00;;;;7393845;19;20136;-78
2023/10/08 02:11:10;;;;;;;9.20;2.58;;;;;17.30;94967.00;;;;7396090;19;20129;-77
2023/10/08 02:13:38;;;;;;;6.22;2.45;;;;;17.20;94971.00;;;;7396392;19;20125;-79
2023/10/08 02:16:19;;;;;;;5.20;2.47;;;;;17.20;94974.00;;;;7395630;19;20132;-76
2023/10/08 02:18:55;;;;;;;5.95;2.25;;;;;17.20;94970.00;;;;7402448;19;20149;-75
2023/10/08 02:21:25;;;;;;;8.35;2.40;;;;;17.20;94968.00;;;;7399200;19;20433;-78
2023/10/08 02:23:54;;;;;;;9.93;2.55;;;;;17.20;94965.00;;;;7399793;19;20160;-77
2023/10/08 02:26:29;;;;;;;9.95;2.50;;;;;17.40;94956.00;;;;7403991;19;20172;-79
2023/10/08 02:29:10;;;;;;;7.78;2.40;;;;;17.20;94956.00;;;;7399657;19;20256;-76
2023/10/08 02:31:44;;;;;;;8.73;2.80;;;;;17.20;94957.00;;;;7400313;19;20133;-75
2023/10/08 02:34:13;;;;;;;9.43;2.63;;;;;17.20;94959.00;;;;7401550;19;20149;-75
2023/10/08 02:36:47;;;;;;;10.85;2.97;;;;;17.20;94952.00;;;;7401654;19;20222;-73
2023/10/08 02:39:25;;;;;;;6.75;2.63;;;;;17.10;94964.00;;;;7399429;19;20584;-74
2023/10/08 02:42:10;;;;;;;9.25;2.78;;;;;17.10;94955.00;;;;7400893;19;20136;-76
2023/10/08 02:44:41;;;;;;;10.07;2.70;;;;;17.10;94961.00;;;;7401355;19;20583;-74
2023/10/08 02:47:20;;;;;;;5.13;2.65;;;;;17.30;94967.00;;;;7400017;19;20634;-76
2023/10/08 02:49:55;;;;;;;8.15;2.67;;;;;17.30;94963.00;;;;7399478;19;20294;-75
2023/10/08 02:52:29;;;;;;;5.85;2.72;;;;;17.30;94966.00;;;;7399655;19;20137;-75
2023/10/08 02:55:12;;;;;;;6.10;2.80;;;;;17.20;94963.00;;;;7400267;19;20132;-75
2023/10/08 02:57:46;;;;;;;4.72;2.53;;;;;17.20;94968.00;;;;7400045;19;20165;-75
2023/10/08 03:00:20;;;;;;;7.68;2.50;;;;;17.20;94964.00;;;;7398681;19;20152;-77
2023/10/08 03:03:09;;;;;;;7.63;2.78;;;;;17.30;94961.00;;;;7399050;19;20180;-75
2023/10/08 03:05:38;;;;;;;6.60;2.78;;;;;17.10;94970.00;;;;7400130;19;20148;-75
2023/10/08 03:08:21;;;;;;;8.55;2.67;;;;;17.10;94967.00;;;;7399730;19;20124;-76
2023/10/08 03:10:55;;;;;;;5.97;2.67;;;;;17.00;94966.00;;;;7399410;19;20144;-76
2023/10/08 03:13:29;;;;;;;7.22;2.95;;;;;17.00;94966.00;;;;7398976;19;20622;-77
2023/10/08 03:16:07;;;;;;;5.05;2.63;;;;;17.00;94965.00;;;;7400842;19;20120;-76
2023/10/08 03:18:49;;;;;;;10.05;2.47;;;;;17.20;94971.00;;;;7399829;19;20129;-75
2023/10/08 03:21:48;;;;;;;8.02;2.60;;;;;17.10;94961.00;;;;7399002;19;20481;-75
2023/10/08 03:27:20;;;;;;;8.25;2.80;;;;;17.10;94968.00;;;;7399721;19;20157;-82
2023/10/08 03:29:58;;;;;;;9.73;2.88;;;;;17.10;94963.00;;;;7398542;19;20530;-78
2023/10/08 03:32:26;;;;;;;6.82;2.75;;;;;17.10;94967.00;;;;7398549;19;20145;-80
2023/10/08 03:35:01;;;;;;;9.73;2.75;;;;;17.00;94967.00;;;;7400048;19;20184;-79
2023/10/08 03:37:46;;;;;;;6.20;2.80;;;;;17.10;94959.00;;;;7398346;19;20140;-78
2023/10/08 03:40:42;;;;;;;7.32;2.58;;;;;17.20;94971.00;;;;7397318;19;20635;-82
2023/10/08 03:43:24;;;;;;;4.30;2.17;;;;;17.20;94971.00;;;;7398564;19;20124;-81
2023/10/08 03:45:59;;;;;;;7.32;2.70;;;;;17.20;94970.00;;;;7396991;19;20148;-78
2023/10/08 03:48:32;;;;;;;4.75;2.42;;;;;17.10;94978.00;;;;7397791;19;20151;-80
2023/10/08 03:51:11;;;;;;;5.38;2.47;;;;;17.10;94976.00;;;;7395022;19;20137;-81
2023/10/08 03:56:52;;;;;;;10.30;2.90;;;;;17.00;94963.00;;;;7396443;19;20141;-80
2023/10/08 03:59:31;;;;;;;3.97;2.38;;;;;17.10;94966.00;;;;7400541;19;20156;-81
2023/10/08 04:02:21;;;;;;;9.07;2.47;;;;;17.00;94972.00;;;;7395875;19;20219;-79
2023/10/08 04:04:58;;;;;;;5.72;2.45;;;;;17.20;94973.00;;;;7397243;19;20208;-83
2023/10/08 04:07:28;;;;;;;7.57;2.25;;;;;17.20;94974.00;;;;7397926;19;20853;-81
2023/10/08 04:12:50;;;;;;;7.15;2.35;;;;;17.10;94969.00;;;;7396962;19;20149;-81
2023/10/08 04:15:19;;;;;;;4.90;2.55;;;;;17.20;94971.00;;;;7399962;19;20129;-82
2023/10/08 04:17:54;;;;;;;10.77;2.83;;;;;17.20;94965.00;;;;7397694;19;20159;-81
2023/10/08 04:20:32;;;;;;;4.43;2.65;;;;;17.20;94966.00;;;;7395911;19;20136;-80
2023/10/08 04:23:18;;;;;;;6.50;2.33;;;;;17.10;94954.00;;;;7395925;19;20131;-79
2023/10/08 04:25:53;;;;;;;8.70;2.67;;;;;17.20;94951.00;;;;7400000;19;20129;-78
2023/10/08 04:28:34;;;;;;;6.97;3.08;;;;;17.10;94950.00;;;;7397353;19;20145;-82
2023/10/08 04:31:14;;;;;;;6.60;2.90;;;;;17.10;94954.00;;;;7396308;19;20148;-81
2023/10/08 04:33:50;;;;;;;4.05;2.25;;;;;17.30;94954.00;;;;7397227;19;20552;-82
2023/10/08 04:36:19;;;;;;;5.70;2.80;;;;;17.20;94951.00;;;;7397131;19;20490;-82
2023/10/08 04:38:54;;;;;;;6.30;2.55;;;;;17.20;94961.00;;;;7394553;19;20132;-80
2023/10/08 04:41:28;;;;;;;6.35;2.30;;;;;17.10;94959.00;;;;7396063;19;20152;-83
2023/10/08 04:44:08;;;;;;;7.00;2.65;;;;;17.10;94958.00;;;;7398372;19;20152;-87
2023/10/08 04:46:47;;;;;;;10.05;2.90;;;;;17.20;94958.00;;;;7395967;19;20148;-84
2023/10/08 04:52:13;;;;;;;10.30;2.78;;;;;17.10;94957.00;;;;7396826;19;20141;-81
2023/10/08 04:54:51;;;;;;;4.45;2.78;;;;;17.20;94954.00;;;;7394794;19;20155;-87
2023/10/08 04:57:30;;;;;;;7.18;2.70;;;;;17.10;94954.00;;;;7395575;19;20185;-82
2023/10/08 04:59:58;;;;;;;6.97;2.78;;;;;17.10;94959.00;;;;7395565;19;20587;-82
2023/10/08 05:02:48;;;;;;;5.35;2.63;;;;;17.00;94959.00;;;;7395765;19;20171;-84
2023/10/08 05:05:49;;;;;;;6.60;3.10;;;;;17.10;94966.00;;;;7395194;19;20149;-82
2023/10/08 05:08:47;;;;;;;6.22;2.60;;;;;17.00;94950.00;;;;7395019;19;20140;-81
2023/10/08 05:11:45;;;;;;;7.40;2.88;;;;;17.10;94972.00;;;;7394001;19;20157;-82
2023/10/08 05:14:36;;;;;;;8.05;2.53;;;;;17.00;94980.00;;;;7395799;19;20137;-80
2023/10/08 05:30:41;;;;;;;5.43;2.70;;;;;17.00;94979.00;;;;7395760;19;20594;-83
2023/10/08 05:33:23;;;;;;;5.45;2.60;;;;;16.90;94984.00;;;;7394563;19;20148;-81
2023/10/08 05:36:10;;;;;;;4.78;2.28;;;;;16.90;94984.00;;;;7393685;19;20157;-81
2023/10/08 05:38:48;;;;;;;7.75;2.80;;;;;16.80;94972.00;;;;7395844;19;20488;-81
2023/10/08 05:41:38;;;;;;;8.75;2.70;;;;;16.80;94987.00;;;;7393336;19;20485;-81
2023/10/08 05:49:38;;;;;;;6.75;2.83;;;;;16.70;94994.00;;;;7395112;19;20148;-77
2023/10/08 05:52:25;;;;;;;9.20;2.45;;;;;16.70;94990.00;;;;7401825;19;20151;-78
2023/10/08 05:55:14;;;;;;;7.95;3.05;;;;;16.70;94990.00;;;;7399441;19;20140;-76
2023/10/08 05:57:52;;;;;;;6.22;2.33;;;;;16.80;94985.00;;;;7400777;19;20536;-76
2023/10/08 06:00:46;;;;;;;4.20;2.25;;;;;16.80;94990.00;;;;7401229;19;20595;-76
2023/10/08 06:03:36;;;;;;;4.88;2.63;;;;;16.80;94988.00;;;;7393578;19;20192;-77
2023/10/08 06:09:35;;;;;;;6.35;2.42;;;;;16.80;94997.00;;;;7388843;19;20563;-76
2023/10/08 06:11:44;;;;;;;3.53;2.50;;;;;16.80;94996.00;;;;7386257;19;20160;-76
2023/10/08 06:14:13;;;;;;;4.07;2.42;;;;;16.90;94999.00;;;;7386474;19;20149;-78
2023/10/08 06:17:01;;;;;;;6.00;2.55;;;;;16.90;95000.00;;;;7388924;19;20211;-77
2023/10/08 06:19:33;;;;;;;7.38;2.83;;;;;17.00;94993.00;;;;7381755;19;20145;-78
2023/10/08 06:22:08;;;;;;;8.88;3.25;;;;;17.10;94992.00;;;;7382830;19;20152;-76
2023/10/08 06:24:43;;;;;;;6.40;2.97;;;;;17.00;94992.00;;;;7385772;19;20136;-77
2023/10/08 06:27:16;;;;;;;9.98;3.05;;;;;17.00;94990.00;;;;7388265;19;20176;-79
2023/10/08 06:29:50;;;;;;;5.32;2.40;;;;;16.90;94998.00;;;;7388079;19;20168;-78
2023/10/08 06:32:25;;;;;;;6.40;2.97;;;;;16.90;94995.00;;;;7386796;19;20192;-76
2023/10/08 06:34:56;;;;;;;5.07;2.47;;;;;17.00;95005.00;;;;7385258;19;20156;-78
2023/10/08 06:37:33;;;;;;;4.70;3.13;;;;;17.10;94995.00;;;;7386473;19;20145;-78
2023/10/08 06:40:03;;;;;;;6.88;2.80;;;;;17.40;94994.00;;;;7386026;19;20145;-78
2023/10/08 06:42:37;;;;;;;8.10;3.20;;;;;17.50;94997.00;;;;7385535;19;20140;-78
2023/10/08 06:45:09;;;;;;;6.50;3.35;;;;;17.70;94993.00;;;;7385563;19;20231;-78
2023/10/08 06:47:52;;;;;;;6.97;3.40;;;;;17.80;94998.00;;;;7384498;19;20149;-76
2023/10/08 06:50:21;;;;;;;7.53;3.33;;;;;17.80;94996.00;;;;7385147;19;20174;-76
2023/10/08 06:52:57;;;;;;;6.93;3.50;;;;;17.70;95001.00;;;;7387593;19;20471;-76
2023/10/08 06:55:27;;;;;;;6.60;3.40;;;;;17.70;95002.00;;;;7385638;19;20176;-78
2023/10/08 06:58:05;;;;;;;10.55;3.53;;;;;17.70;95006.00;;;;7387226;19;20515;-76
2023/10/08 07:00:40;;;;;;;10.00;3.70;;;;;17.70;95004.00;;;;7387752;19;20152;-77
2023/10/08 07:03:18;;;;;;;11.48;3.40;;;;;17.60;95013.00;;;;7382232;19;20554;-78
2023/10/08 07:06:02;;;;;;;9.40;3.80;;;;;17.60;95019.00;;;;7386756;19;21038;-78
2023/10/08 07:08:37;;;;;;;10.75;3.28;;;;;17.60;95008.00;;;;7386593;19;20238;-78
2023/10/08 07:11:12;;;;;;;8.02;3.05;;;;;17.70;95005.00;;;;7386008;19;20477;-79
2023/10/08 07:13:48;;;;;;;8.38;3.45;;;;;17.80;95006.00;;;;7385525;19;20127;-78
2023/10/08 07:16:17;;;;;;;7.15;3.00;;;;;17.90;95008.00;;;;7386524;19;20137;-78
2023/10/08 07:18:52;;;;;;;8.00;3.40;;;;;18.40;95009.00;;;;7384058;19;20149;-80
2023/10/08 07:21:44;;;;;;;9.50;3.35;;;;;18.70;95003.00;;;;7380670;19;20136;-79
2023/10/08 07:24:16;;;;;;;11.15;3.20;;;;;18.90;95013.00;;;;7371559;19;20143;-79
2023/10/08 07:26:55;;;;;;;8.45;3.67;;;;;18.80;95008.00;;;;7371896;19;20571;-79
2023/10/08 07:29:32;;;;;;;11.48;3.70;;;;;18.90;95002.00;;;;7371983;19;20204;-79
2023/10/08 07:32:10;;;;;;;12.00;3.40;;;;;19.00;95009.00;;;;7371644;19;20137;-79
2023/10/08 07:34:38;;;;;;;8.98;3.25;;;;;19.40;95014.00;;;;7371407;19;20200;-78
2023/10/08 07:37:14;;;;;;;21.10;3.47;;;;;19.10;95027.00;;;;7367470;19;20148;-74
2023/10/08 07:39:49;;;;;;;11.65;3.50;;;;;19.10;95019.00;;;;7364608;19;20139;-78
2023/10/08 07:42:26;;;;;;;13.63;3.53;;;;;18.80;95023.00;;;;7366085;19;20200;-77
2023/10/08 07:44:55;;;;;;;11.18;3.35;;;;;18.80;95021.00;;;;7368333;19;20182;-78
2023/10/08 07:47:30;;;;;;;8.68;3.38;;;;;18.70;95025.00;;;;7366436;19;20148;-78
2023/10/08 07:50:11;;;;;;;8.88;3.72;;;;;18.50;95032.00;;;;7367389;19;20144;-77
2023/10/08 07:52:55;;;;;;;8.68;3.47;;;;;18.30;95029.00;;;;7365934;19;20136;-77
2023/10/08 07:55:34;;;;;;;7.70;2.97;;;;;18.30;95024.00;;;;7364139;19;20171;-79
2023/10/08 07:58:11;;;;;;;8.50;3.38;;;;;18.30;95029.00;;;;7367310;19;20623;-78
2023/10/08 08:00:40;;;;;;;11.95;3.38;;;;;18.20;95035.00;;;;7366733;19;20614;-77
2023/10/08 08:03:28;;;;;;;9.48;3.78;;;;;18.10;95027.00;;;;7362793;19;20509;-76
2023/10/08 08:06:07;;;;;;;11.23;3.40;;;;;18.20;95027.00;;;;7381125;19;20145;-77
2023/10/08 08:08:38;;;;;;;8.98;3.30;;;;;18.50;95029.00;;;;7379914;19;20156;-79
2023/10/08 08:11:13;;;;;;;9.52;4.05;;;;;18.90;95022.00;;;;7377531;19;20631;-78
2023/10/08 08:13:44;;;;;;;12.43;4.50;;;;;19.30;95016.00;;;;7380835;19;20133;-77
2023/10/08 08:16:20;;;;;;;9.43;3.25;;;;;19.70;95021.00;;;;7377452;19;20212;-78
2023/10/08 08:18:57;;;;;;;9.50;4.07;;;;;19.80;95022.00;;;;7376329;19;20191;-79
2023/10/08 08:21:31;;;;;;;7.75;3.40;;;;;20.00;95022.00;;;;7377323;19;20206;-77
2023/10/08 08:24:05;;;;;;;6.60;3.15;;;;;20.00;95017.00;;;;7372951;19;20155;-77
2023/10/08 08:27:00;;;;;;;11.82;3.50;;;;;20.20;95018.00;;;;7377144;19;20977;-78
2023/10/08 08:29:45;;;;;;;14.55;4.05;;;;;20.40;95027.00;;;;7377072;19;20283;-77
2023/10/08 08:32:25;;;;;;;9.77;4.10;;;;;20.40;95031.00;;;;7377957;19;20152;-77
2023/10/08 08:34:54;;;;;;;11.73;4.13;;;;;20.80;95033.00;;;;7375135;19;20144;-78
2023/10/08 08:37:30;;;;;;;7.95;3.35;;;;;21.00;95043.00;;;;7376027;19;20892;-77
2023/10/08 08:40:09;;;;;;;8.50;3.60;;;;;21.50;95043.00;;;;7375786;19;20523;-78
2023/10/08 08:42:38;;;;;;;10.68;3.92;;;;;21.50;95054.00;;;;7377619;19;20188;-80
2023/10/08 08:45:18;;;;;;;10.93;3.85;;;;;21.70;95051.00;;;;7375057;19;20711;-78
2023/10/08 08:47:54;;;;;;;10.70;3.75;;;;;21.80;95048.00;;;;7377614;19;20152;-79
2023/10/08 08:50:22;;;;;;;9.43;4.47;;;;;22.00;95062.00;;;;7379008;19;20488;-80
2023/10/08 08:52:58;;;;;;;9.98;3.67;;;;;21.70;95059.00;;;;7377613;19;20642;-78
2023/10/08 08:55:33;;;;;;;9.95;4.15;;;;;21.90;95075.00;;;;7378637;19;20208;-78
2023/10/08 08:58:11;;;;;;;5.60;3.72;;;;;22.20;95076.00;;;;7379050;19;20591;-79
2023/10/08 09:00:52;;;;;;;8.70;3.55;;;;;21.80;95091.00;;;;7374294;19;20148;-79
2023/10/08 09:03:20;;;;;;;8.60;3.83;;;;;21.30;95096.00;;;;7374483;19;20175;-77
2023/10/08 09:05:54;;;;;;;9.13;3.65;;;;;21.20;95100.00;;;;7374405;19;20152;-78
2023/10/08 09:08:34;;;;;;;12.05;4.22;;;;;21.30;95103.00;;;;7374828;19;20153;-80
2023/10/08 09:11:04;;;;;;;10.18;3.95;;;;;21.40;95097.00;;;;7373277;19;20190;-78
2023/10/08 09:13:40;;;;;;;9.15;4.03;;;;;21.30;95105.00;;;;7375247;19;20152;-78
2023/10/08 09:16:17;;;;;;;8.68;3.30;;;;;21.20;95097.00;;;;7375618;19;20140;-76
2023/10/08 09:18:48;;;;;;;7.78;3.72;;;;;21.50;95104.00;;;;7376707;19;20150;-77
2023/10/08 09:21:23;;;;;;;12.75;3.88;;;;;21.80;95094.00;;;;7376151;19;20151;-77
2023/10/08 09:23:54;;;;;;;8.50;4.32;;;;;21.80;95088.00;;;;7376657;19;20169;-78
2023/10/08 09:26:29;;;;;;;10.40;3.72;;;;;22.10;95083.00;;;;7375817;19;20138;-78
2023/10/08 09:29:07;;;;;;;9.55;3.45;;;;;22.30;95083.00;;;;7373938;19;20173;-78
2023/10/08 09:31:50;;;;;;;8.35;3.58;;;;;22.50;95084.00;;;;7376707;19;20137;-77
2023/10/08 09:34:30;;;;;;;13.80;3.67;;;;;22.90;95081.00;;;;7375399;19;20149;-78
2023/10/08 09:37:04;;;;;;;12.75;3.97;;;;;22.70;95080.00;;;;7375279;19;20196;-77
2023/10/08 09:39:35;;;;;;;14.52;4.00;;;;;22.70;95093.00;;;;7372933;19;20140;-77
2023/10/08 09:42:09;;;;;;;14.15;4.13;;;;;22.70;95085.00;;;;7374981;19;20484;-76
2023/10/08 09:44:44;;;;;;;8.43;3.70;;;;;22.90;95066.00;;;;7367235;19;20145;-77
2023/10/08 09:47:16;;;;;;;10.57;3.33;;;;;22.70;95083.00;;;;7374023;19;20231;-77
2023/10/08 09:49:51;;;;;;;14.65;3.92;;;;;23.50;95087.00;;;;7370222;19;20149;-77
2023/10/08 09:53:06;;;;;;;12.57;3.40;;;;;23.70;95086.00;;;;7369350;19;20220;-75
2023/10/08 09:55:54;;;;;;;10.10;3.58;;;;;23.60;95084.00;;;;7372450;19;20555;-78
2023/10/08 09:58:29;;;;;;;16.73;3.78;;;;;24.00;95096.00;;;;7374315;19;20606;-75
2023/10/08 10:01:04;;;;;;;15.13;3.90;;;;;23.60;95112.00;;;;7368992;19;20168;-76
2023/10/08 10:03:36;;;;;;;13.15;3.90;;;;;23.10;95110.00;;;;7369058;19;20183;-76
2023/10/08 10:06:18;;;;;;;13.32;3.38;;;;;22.90;95110.00;;;;7372598;19;20620;-77
2023/10/08 10:08:49;;;;;;;15.80;3.95;;;;;23.30;95090.00;;;;7370516;19;20745;-76
2023/10/08 10:11:30;;;;;;;21.60;4.32;;;;;23.40;95090.00;;;;7372525;19;20157;-76
2023/10/08 10:14:01;;;;;;;12.15;3.80;;;;;23.80;95104.00;;;;7368089;19;20136;-77
2023/10/08 10:16:39;;;;;;;13.90;4.28;;;;;23.90;95096.00;;;;7370495;19;20144;-75
2023/10/08 10:19:15;;;;;;;15.23;4.97;;;;;24.20;95093.00;;;;7372273;19;20137;-76
2023/10/08 10:21:51;;;;;;;21.52;4.78;;;;;24.30;95087.00;;;;7375513;19;20162;-76
2023/10/08 10:24:37;;;;;;;17.85;4.22;;;;;24.70;95102.00;;;;7387433;19;20140;-77
2023/10/08 10:27:17;;;;;;;17.40;4.32;;;;;24.60;95097.00;;;;7384293;19;20152;-76
2023/10/08 10:29:47;;;;;;;19.92;4.72;;;;;24.70;95122.00;;;;7392404;19;20152;-77
2023/10/08 10:32:24;;;;;;;17.15;4.60;;;;;23.90;95111.00;;;;7390619;19;20144;-76
2023/10/08 10:34:52;;;;;;;24.88;4.38;;;;;24.00;95113.00;;;;7391131;19;20137;-76
2023/10/08 10:37:40;;;;;;;16.70;3.90;;;;;24.40;95117.00;;;;7393054;19;20596;-76
2023/10/08 10:40:29;;;;;;;18.48;4.20;;;;;24.30;95112.00;;;;7398161;19;20631;-76
2023/10/08 10:43:06;;;;;;;25.33;4.85;;;;;25.20;95113.00;;;;7391397;19;20180;-77
2023/10/08 10:45:36;;;;;;;18.05;4.07;;;;;25.70;95112.00;;;;7393271;19;20148;-77
2023/10/08 10:48:13;;;;;;;18.20;4.65;;;;;25.70;95113.00;;;;7394159;19;20149;-77
2023/10/08 10:56:44;;;;;;;22.80;5.18;;;;;24.30;95127.00;;;;7391492;19;20148;-77
2023/10/08 10:59:19;;;;;;;16.85;4.80;;;;;25.40;95115.00;;;;7391879;19;20132;-79
2023/10/08 11:02:05;;;;;;;19.23;4.10;;;;;25.20;95118.00;;;;7391698;19;20133;-76
2023/10/08 11:04:48;;;;;;;12.50;4.40;;;;;24.50;95118.00;;;;7388681;19;20232;-78
2023/10/08 11:07:26;;;;;;;18.95;4.38;;;;;23.90;95127.00;;;;7385403;19;20176;-77
2023/10/08 11:10:06;;;;;;;17.80;4.60;;;;;23.10;95131.00;;;;7390146;19;20144;-76
2023/10/08 11:12:47;;;;;;;14.40;4.60;;;;;23.40;95120.00;;;;7394737;19;20212;-77
2023/10/08 11:15:23;;;;;;;18.33;4.72;;;;;23.90;95123.00;;;;7393423;19;20148;-76
2023/10/08 11:17:59;;;;;;;20.30;4.65;;;;;23.90;95124.00;;;;7399322;19;20161;-77
2023/10/08 11:20:39;;;;;;;13.77;4.40;;;;;24.30;95118.00;;;;7396985;19;20166;-77
2023/10/08 11:23:19;;;;;;;13.25;4.13;;;;;24.80;95123.00;;;;7398427;19;20149;-75
2023/10/08 11:26:02;;;;;;;16.83;4.97;;;;;24.40;95122.00;;;;7398558;19;20487;-76
2023/10/08 11:28:47;;;;;;;16.33;4.95;;;;;24.00;95130.00;;;;7399467;19;20133;-76
2023/10/08 11:31:19;;;;;;;15.23;3.80;;;;;23.70;95131.00;;;;7399204;19;20141;-77
2023/10/08 11:34:00;;;;;;;19.30;4.03;;;;;23.40;95128.00;;;;7399433;19;20155;-77
2023/10/08 11:36:48;;;;;;;25.20;4.55;;;;;23.40;95121.00;;;;7397462;19;20149;-76
2023/10/08 11:39:45;;;;;;;17.17;4.10;;;;;24.20;95123.00;;;;7398334;19;20212;-77
2023/10/08 11:44:59;;;;;;;20.13;4.53;;;;;26.00;95107.00;;;;7392069;19;20150;-76
2023/10/08 11:47:35;;;;;;;12.55;4.22;;;;;26.90;95104.00;;;;7395497;19;20136;-78
2023/10/08 11:50:10;;;;;;;16.75;3.92;;;;;26.20;95100.00;;;;7396759;19;20196;-75
2023/10/08 11:52:46;;;;;;;18.60;4.47;;;;;27.00;95094.00;;;;7399015;19;20479;-76
2023/10/08 11:55:21;;;;;;;20.15;4.68;;;;;27.30;95093.00;;;;7396280;19;20173;-78
2023/10/08 11:57:57;;;;;;;16.25;4.38;;;;;26.90;95099.00;;;;7395568;19;20135;-78
2023/10/08 12:00:29;;;;;;;19.10;5.05;;;;;26.80;95108.00;;;;7396412;19;20145;-78
2023/10/08 12:03:05;;;;;;;22.88;5.30;;;;;25.30;95100.00;;;;7394550;19;20171;-77
2023/10/08 12:05:50;;;;;;;18.35;4.13;;;;;25.30;95102.00;;;;7393292;19;20152;-77
2023/10/08 12:08:20;;;;;;;24.17;4.93;;;;;24.90;95105.00;;;;7397417;19;20133;-77
2023/10/08 12:10:55;;;;;;;25.73;5.30;;;;;25.30;95092.00;;;;7391557;19;20144;-78
2023/10/08 12:13:28;;;;;;;18.88;4.32;;;;;25.90;95083.00;;;;7396669;19;20137;-77
2023/10/08 12:16:06;;;;;;;12.27;3.80;;;;;26.10;95089.00;;;;7397480;19;20148;-77
2023/10/08 12:18:43;;;;;;;20.45;4.15;;;;;26.60;95090.00;;;;7396384;19;20165;-77
2023/10/08 12:21:18;;;;;;;17.15;4.13;;;;;27.20;95077.00;;;;7390356;19;20481;-76
2023/10/08 12:23:46;;;;;;;20.60;4.30;;;;;27.40;95087.00;;;;7397180;19;20208;-76
2023/10/08 12:26:21;;;;;;;16.23;4.43;;;;;26.80;95081.00;;;;7396358;19;20746;-75
2023/10/08 12:28:51;;;;;;;12.70;3.90;;;;;27.60;95069.00;;;;7396284;19;20133;-77
2023/10/08 12:31:22;;;;;;;20.85;4.55;;;;;26.70;95083.00;;;;7397251;19;20212;-75
2023/10/08 12:34:00;;;;;;;18.88;4.93;;;;;26.80;95088.00;;;;7396587;19;20142;-75
2023/10/08 12:36:36;;;;;;;17.73;4.47;;;;;25.60;95089.00;;;;7397766;19;20599;-76
2023/10/08 12:39:14;;;;;;;22.63;4.75;;;;;25.60;95095.00;;;;7397021;19;20465;-75
2023/10/08 12:41:50;;;;;;;20.58;4.28;;;;;25.50;95077.00;;;;7396450;19;20156;-75
2023/10/08 12:44:27;;;;;;;22.48;4.57;;;;;25.00;95078.00;;;;7394990;19;20137;-77
2023/10/08 12:47:05;;;;;;;17.50;4.72;;;;;25.50;95093.00;;;;7393849;19;20147;-76
2023/10/08 12:49:33;;;;;;;15.27;4.00;;;;;25.50;95087.00;;;;7397045;19;20480;-75
2023/10/08 12:52:08;;;;;;;17.13;4.22;;;;;25.00;95093.00;;;;7395187;19;20148;-76
2023/10/08 12:54:45;;;;;;;15.88;4.20;;;;;25.00;95082.00;;;;7397715;19;20133;-75
2023/10/08 12:57:19;;;;;;;18.50;5.20;;;;;26.10;95073.00;;;;7394991;19;20141;-75
2023/10/08 13:00:00;;;;;;;21.67;4.93;;;;;26.90;95073.00;;;;7393791;19;20160;-76
2023/10/08 13:02:39;;;;;;;19.10;4.57;;;;;27.70;95078.00;;;;7394957;19;20702;-75
2023/10/08 13:05:27;;;;;;;10.40;4.28;;;;;29.00;95057.00;;;;7393669;19;20496;-75
2023/10/08 13:07:57;;;;;;;27.42;5.13;;;;;29.00;95058.00;;;;7394991;19;20170;-76
2023/10/08 13:10:32;;;;;;;15.57;4.10;;;;;28.40;95054.00;;;;7395174;19;20159;-77
2023/10/08 13:13:06;;;;;;;18.98;4.55;;;;;29.00;95063.00;;;;7397116;19;20136;-76
2023/10/08 13:15:35;;;;;;;21.55;4.95;;;;;28.70;95069.00;;;;7394563;19;20236;-77
2023/10/08 13:18:18;;;;;;;17.70;4.30;;;;;27.60;95067.00;;;;7394704;19;20144;-77
2023/10/08 13:21:00;;;;;;;23.17;5.07;;;;;27.90;95068.00;;;;7395920;19;20145;-75
2023/10/08 13:23:29;;;;;;;21.25;5.38;;;;;28.40;95069.00;;;;7394629;19;20148;-76
2023/10/08 13:26:04;;;;;;;17.20;5.00;;;;;28.00;95066.00;;;;7393552;19;20611;-76
2023/10/08 13:28:40;;;;;;;20.52;4.78;;;;;27.30;95076.00;;;;7395934;19;20136;-76
2023/10/08 13:31:10;;;;;;;15.43;4.47;;;;;27.00;95073.00;;;;7394351;19;20144;-76
2023/10/08 13:33:48;;;;;;;23.77;5.15;;;;;26.50;95071.00;;;;7394974;19;20160;-74
2023/10/08 13:36:23;;;;;;;23.88;4.97;;;;;25.80;95068.00;;;;7394505;19;20152;-76
2023/10/08 13:38:51;;;;;;;17.25;5.28;;;;;25.30;95072.00;;;;7394547;19;20739;-75
2023/10/08 13:41:20;;;;;;;21.92;4.68;;;;;25.40;95063.00;;;;7394213;19;20169;-77
2023/10/08 13:44:01;;;;;;;17.95;4.35;;;;;25.30;95070.00;;;;7395001;19;20156;-75
2023/10/08 13:46:36;;;;;;;23.92;4.95;;;;;25.50;95077.00;;;;7392493;19;20144;-74
2023/10/08 13:49:06;;;;;;;19.10;4.88;;;;;25.60;95072.00;;;;7390358;19;20155;-76